sensor_id;sensor_type;location;lat;lon;timestamp;pressure;altitude;pressure_sealevel;temperature;humidity
50852;BME280;43953;45.508;-122.806;2023-05-10T00:00:08;100930.19;;;21.33;36.03
50852;BME280;43953;45.508;-122.806;2023-05-10T00:00:40;100928.28;;;21.33;36.20
50852;BME280;43953;45.508;-122.806;2023-05-10T00:01:12;100929.09;;;21.34;36.41
50852;BME280;43953;45.508;-122.806;2023-05-10T00:01:44;100926.63;;;21.32;36.19
50852;BME280;43953;45.508;-122.806;2023-05-10T00:02:15;100933.75;;;21.33;36.23
50852;BME280;43953;45.508;-122.806;2023-05-10T00:02:47;100931.28;;;21.32;36.37
50852;BME280;43953;45.508;-122.806;2023-05-10T00:03:19;100927.47;;;21.33;36.53
50852;BME280;43953;45.508;-122.806;2023-05-10T00:03:51;100930.47;;;21.31;36.25
50852;BME280;43953;45.508;-122.806;2023-05-10T00:04:22;100931.56;;;21.30;36.23
50852;BME280;43953;45.508;-122.806;2023-05-10T00:04:58;100933.50;;;21.30;36.10
50852;BME280;43953;45.508;-122.806;2023-05-10T00:05:30;100931.00;;;21.28;35.95
50852;BME280;43953;45.508;-122.806;2023-05-10T00:06:02;100929.38;;;21.27;36.03
50852;BME280;43953;45.508;-122.806;2023-05-10T00:06:33;100923.09;;;21.27;36.02
50852;BME280;43953;45.508;-122.806;2023-05-10T00:07:05;100927.72;;;21.26;36.03
50852;BME280;43953;45.508;-122.806;2023-05-10T00:07:37;100927.72;;;21.26;36.11
50852;BME280;43953;45.508;-122.806;2023-05-10T00:08:09;100925.81;;;21.27;35.89
50852;BME280;43953;45.508;-122.806;2023-05-10T00:08:41;100919.78;;;21.25;35.84
50852;BME280;43953;45.508;-122.806;2023-05-10T00:09:13;100917.31;;;21.23;36.03
50852;BME280;43953;45.508;-122.806;2023-05-10T00:09:45;100923.91;;;21.22;36.36
50852;BME280;43953;45.508;-122.806;2023-05-10T00:10:16;100918.97;;;21.19;36.17
50852;BME280;43953;45.508;-122.806;2023-05-10T00:10:48;100912.94;;;21.17;35.98
50852;BME280;43953;45.508;-122.806;2023-05-10T00:11:20;100923.63;;;21.13;36.14
50852;BME280;43953;45.508;-122.806;2023-05-10T00:11:52;100920.34;;;21.11;36.38
50852;BME280;43953;45.508;-122.806;2023-05-10T00:12:24;100917.06;;;21.09;36.72
50852;BME280;43953;45.508;-122.806;2023-05-10T00:12:55;100922.81;;;21.08;37.05
50852;BME280;43953;45.508;-122.806;2023-05-10T00:13:27;100922.00;;;21.07;36.52
50852;BME280;43953;45.508;-122.806;2023-05-10T00:13:59;100933.19;;;21.06;36.23
50852;BME280;43953;45.508;-122.806;2023-05-10T00:14:30;100928.00;;;21.04;36.39
50852;BME280;43953;45.508;-122.806;2023-05-10T00:15:03;100922.78;;;21.03;36.52
50852;BME280;43953;45.508;-122.806;2023-05-10T00:15:35;100927.75;;;21.01;36.50
50852;BME280;43953;45.508;-122.806;2023-05-10T00:16:06;100924.19;;;21.00;36.50
50852;BME280;43953;45.508;-122.806;2023-05-10T00:16:38;100922.53;;;20.99;36.67
50852;BME280;43953;45.508;-122.806;2023-05-10T00:17:10;100919.25;;;20.97;36.63
50852;BME280;43953;45.508;-122.806;2023-05-10T00:17:42;100917.34;;;20.98;36.50
50852;BME280;43953;45.508;-122.806;2023-05-10T00:18:13;100915.69;;;20.97;36.64
50852;BME280;43953;45.508;-122.806;2023-05-10T00:18:45;100916.78;;;20.96;36.11
50852;BME280;43953;45.508;-122.806;2023-05-10T00:19:17;100922.53;;;20.94;36.17
50852;BME280;43953;45.508;-122.806;2023-05-10T00:19:49;100920.31;;;20.91;36.11
50852;BME280;43953;45.508;-122.806;2023-05-10T00:20:20;100923.34;;;20.89;35.82
50852;BME280;43953;45.508;-122.806;2023-05-10T00:20:52;100912.94;;;20.86;35.83
50852;BME280;43953;45.508;-122.806;2023-05-10T00:21:24;100918.69;;;20.85;35.60
50852;BME280;43953;45.508;-122.806;2023-05-10T00:21:55;100918.16;;;20.83;35.79
50852;BME280;43953;45.508;-122.806;2023-05-10T00:22:27;100917.34;;;20.82;35.78
50852;BME280;43953;45.508;-122.806;2023-05-10T00:22:59;100917.34;;;20.82;36.24
50852;BME280;43953;45.508;-122.806;2023-05-10T00:23:30;100919.50;;;20.80;36.00
50852;BME280;43953;45.508;-122.806;2023-05-10T00:24:02;100926.63;;;20.81;36.41
50852;BME280;43953;45.508;-122.806;2023-05-10T00:24:34;100914.59;;;20.82;36.39
50852;BME280;43953;45.508;-122.806;2023-05-10T00:25:06;100922.81;;;20.82;36.69
50852;BME280;43953;45.508;-122.806;2023-05-10T00:25:38;100918.97;;;20.83;36.81
50852;BME280;43953;45.508;-122.806;2023-05-10T00:26:10;100915.94;;;20.85;36.92
50852;BME280;43953;45.508;-122.806;2023-05-10T00:26:42;100915.94;;;20.85;36.88
50852;BME280;43953;45.508;-122.806;2023-05-10T00:27:14;100914.59;;;20.87;37.00
50852;BME280;43953;45.508;-122.806;2023-05-10T00:27:46;100912.94;;;20.86;37.11
50852;BME280;43953;45.508;-122.806;2023-05-10T00:28:17;100917.88;;;20.89;36.84
50852;BME280;43953;45.508;-122.806;2023-05-10T00:28:49;100916.25;;;20.88;37.11
50852;BME280;43953;45.508;-122.806;2023-05-10T00:29:21;100912.41;;;20.89;37.12
50852;BME280;43953;45.508;-122.806;2023-05-10T00:29:52;100909.38;;;20.91;37.05
50852;BME280;43953;45.508;-122.806;2023-05-10T00:30:24;100912.41;;;20.89;36.76
50852;BME280;43953;45.508;-122.806;2023-05-10T00:30:56;100917.88;;;20.89;36.82
50852;BME280;43953;45.508;-122.806;2023-05-10T00:31:28;100916.25;;;20.88;36.63
50852;BME280;43953;45.508;-122.806;2023-05-10T00:31:59;100913.78;;;20.87;36.63
50852;BME280;43953;45.508;-122.806;2023-05-10T00:32:31;100914.59;;;20.87;36.75
50852;BME280;43953;45.508;-122.806;2023-05-10T00:33:03;100905.84;;;20.85;36.66
50852;BME280;43953;45.508;-122.806;2023-05-10T00:33:34;100908.84;;;20.84;36.69
50852;BME280;43953;45.508;-122.806;2023-05-10T00:34:06;100907.22;;;20.83;36.62
50852;BME280;43953;45.508;-122.806;2023-05-10T00:34:38;100907.47;;;20.81;36.64
50852;BME280;43953;45.508;-122.806;2023-05-10T00:35:09;100910.50;;;20.80;36.81
50852;BME280;43953;45.508;-122.806;2023-05-10T00:35:41;100908.56;;;20.80;36.93
50852;BME280;43953;45.508;-122.806;2023-05-10T00:36:13;100909.38;;;20.81;36.89
50852;BME280;43953;45.508;-122.806;2023-05-10T00:36:44;100909.13;;;20.82;37.02
50852;BME280;43953;45.508;-122.806;2023-05-10T00:37:16;100899.81;;;20.83;37.15
50852;BME280;43953;45.508;-122.806;2023-05-10T00:37:48;100910.47;;;20.85;37.06
50852;BME280;43953;45.508;-122.806;2023-05-10T00:38:20;100907.47;;;20.86;37.48
50852;BME280;43953;45.508;-122.806;2023-05-10T00:38:51;100905.56;;;20.87;37.90
50852;BME280;43953;45.508;-122.806;2023-05-10T00:39:23;100903.63;;;20.87;37.73
50852;BME280;43953;45.508;-122.806;2023-05-10T00:39:55;100908.03;;;20.88;37.80
50852;BME280;43953;45.508;-122.806;2023-05-10T00:40:27;100905.31;;;20.88;38.07
50852;BME280;43953;45.508;-122.806;2023-05-10T00:40:59;100904.19;;;20.89;37.97
50852;BME280;43953;45.508;-122.806;2023-05-10T00:41:31;100905.81;;;20.90;37.95
50852;BME280;43953;45.508;-122.806;2023-05-10T00:42:03;100906.94;;;20.89;37.69
50852;BME280;43953;45.508;-122.806;2023-05-10T00:42:35;100904.75;;;20.92;37.70
50852;BME280;43953;45.508;-122.806;2023-05-10T00:43:07;100907.50;;;20.92;37.22
50852;BME280;43953;45.508;-122.806;2023-05-10T00:43:39;100916.50;;;20.92;36.99
50852;BME280;43953;45.508;-122.806;2023-05-10T00:44:10;100910.22;;;20.92;36.98
50852;BME280;43953;45.508;-122.806;2023-05-10T00:44:42;100906.38;;;20.93;36.88
50852;BME280;43953;45.508;-122.806;2023-05-10T00:45:14;100902.00;;;20.92;36.84
50852;BME280;43953;45.508;-122.806;2023-05-10T00:45:46;100906.66;;;20.91;36.60
50852;BME280;43953;45.508;-122.806;2023-05-10T00:46:18;100905.31;;;20.88;36.59
50852;BME280;43953;45.508;-122.806;2023-05-10T00:46:50;100905.56;;;20.87;36.67
50852;BME280;43953;45.508;-122.806;2023-05-10T00:47:22;100902.00;;;20.86;36.84
50852;BME280;43953;45.508;-122.806;2023-05-10T00:47:54;100903.94;;;20.86;36.91
50852;BME280;43953;45.508;-122.806;2023-05-10T00:48:28;100902.25;;;20.85;37.01
50852;BME280;43953;45.508;-122.806;2023-05-10T00:49:01;100902.56;;;20.83;37.00
50852;BME280;43953;45.508;-122.806;2023-05-10T00:49:32;100899.81;;;20.83;37.04
50852;BME280;43953;45.508;-122.806;2023-05-10T00:50:05;100901.75;;;20.83;37.22
50852;BME280;43953;45.508;-122.806;2023-05-10T00:50:37;100900.06;;;20.82;37.64
50852;BME280;43953;45.508;-122.806;2023-05-10T00:51:09;100900.91;;;20.82;37.98
50852;BME280;43953;45.508;-122.806;2023-05-10T00:51:41;100904.72;;;20.81;37.76
50852;BME280;43953;45.508;-122.806;2023-05-10T00:52:14;100907.47;;;20.81;37.78
50852;BME280;43953;45.508;-122.806;2023-05-10T00:52:45;100900.38;;;20.80;37.56
50852;BME280;43953;45.508;-122.806;2023-05-10T00:53:17;100900.63;;;20.79;37.51
50852;BME280;43953;45.508;-122.806;2023-05-10T00:53:50;100898.69;;;20.79;37.32
50852;BME280;43953;45.508;-122.806;2023-05-10T00:54:22;100895.97;;;20.79;37.56
50852;BME280;43953;45.508;-122.806;2023-05-10T00:54:54;100896.81;;;20.80;37.34
50852;BME280;43953;45.508;-122.806;2023-05-10T00:55:26;100895.97;;;20.79;37.27
50852;BME280;43953;45.508;-122.806;2023-05-10T00:55:58;100905.28;;;20.78;37.35
50852;BME280;43953;45.508;-122.806;2023-05-10T00:56:30;100897.88;;;20.79;37.42
50852;BME280;43953;45.508;-122.806;2023-05-10T00:57:02;100905.28;;;20.78;37.47
50852;BME280;43953;45.508;-122.806;2023-05-10T00:57:34;100897.06;;;20.78;37.27
50852;BME280;43953;45.508;-122.806;2023-05-10T00:58:06;100895.16;;;20.79;37.09
50852;BME280;43953;45.508;-122.806;2023-05-10T00:58:41;100899.81;;;20.78;37.04
50852;BME280;43953;45.508;-122.806;2023-05-10T00:59:13;100897.06;;;20.78;36.90
50852;BME280;43953;45.508;-122.806;2023-05-10T00:59:45;100899.81;;;20.78;36.81
50852;BME280;43953;45.508;-122.806;2023-05-10T01:00:17;100899.81;;;20.78;36.89
50852;BME280;43953;45.508;-122.806;2023-05-10T01:00:50;100894.63;;;20.77;36.38
50852;BME280;43953;45.508;-122.806;2023-05-10T01:01:23;100894.88;;;20.75;36.74
50852;BME280;43953;45.508;-122.806;2023-05-10T01:01:55;100900.34;;;20.75;36.97
50852;BME280;43953;45.508;-122.806;2023-05-10T01:02:27;100893.25;;;20.74;37.04
50852;BME280;43953;45.508;-122.806;2023-05-10T01:02:59;100891.59;;;20.73;37.00
50852;BME280;43953;45.508;-122.806;2023-05-10T01:03:31;100891.59;;;20.73;36.90
50852;BME280;43953;45.508;-122.806;2023-05-10T01:04:04;100897.91;;;20.74;36.70
50852;BME280;43953;45.508;-122.806;2023-05-10T01:04:35;100889.94;;;20.72;36.40
50852;BME280;43953;45.508;-122.806;2023-05-10T01:05:08;100889.41;;;20.70;36.79
50852;BME280;43953;45.508;-122.806;2023-05-10T01:05:39;100885.03;;;20.69;36.94
50852;BME280;43953;45.508;-122.806;2023-05-10T01:06:11;100889.69;;;20.68;37.18
50852;BME280;43953;45.508;-122.806;2023-05-10T01:06:43;100892.41;;;20.68;37.57
50852;BME280;43953;45.508;-122.806;2023-05-10T01:07:15;100888.88;;;20.68;37.63
50852;BME280;43953;45.508;-122.806;2023-05-10T01:07:47;100892.69;;;20.67;37.67
50852;BME280;43953;45.508;-122.806;2023-05-10T01:08:19;100895.16;;;20.68;37.43
50852;BME280;43953;45.508;-122.806;2023-05-10T01:08:51;100898.72;;;20.69;37.26
50852;BME280;43953;45.508;-122.806;2023-05-10T01:09:23;100892.69;;;20.67;37.46
50852;BME280;43953;45.508;-122.806;2023-05-10T01:09:57;100894.34;;;20.68;37.41
50852;BME280;43953;45.508;-122.806;2023-05-10T01:10:30;100895.41;;;20.67;37.34
50852;BME280;43953;45.508;-122.806;2023-05-10T01:11:02;100889.13;;;20.66;37.49
50852;BME280;43953;45.508;-122.806;2023-05-10T01:11:35;100891.03;;;20.66;37.36
50852;BME280;43953;45.508;-122.806;2023-05-10T01:12:08;100891.03;;;20.66;38.11
50852;BME280;43953;45.508;-122.806;2023-05-10T01:12:44;100889.66;;;20.63;38.55
50852;BME280;43953;45.508;-122.806;2023-05-10T01:13:41;100898.16;;;20.62;38.47
50852;BME280;43953;45.508;-122.806;2023-05-10T01:14:13;100884.47;;;20.62;38.23
50852;BME280;43953;45.508;-122.806;2023-05-10T01:14:46;100892.69;;;20.62;38.16
50852;BME280;43953;45.508;-122.806;2023-05-10T01:15:20;100892.94;;;20.60;38.28
50852;BME280;43953;45.508;-122.806;2023-05-10T01:15:52;100890.78;;;20.62;38.38
50852;BME280;43953;45.508;-122.806;2023-05-10T01:16:24;100887.75;;;20.64;38.33
50852;BME280;43953;45.508;-122.806;2023-05-10T01:16:58;100882.56;;;20.62;38.26
50852;BME280;43953;45.508;-122.806;2023-05-10T01:17:32;100890.78;;;20.62;37.79
50852;BME280;43953;45.508;-122.806;2023-05-10T01:18:05;100882.56;;;20.62;37.63
50852;BME280;43953;45.508;-122.806;2023-05-10T01:18:39;100885.31;;;20.62;37.82
50852;BME280;43953;45.508;-122.806;2023-05-10T01:19:22;100882.00;;;20.60;37.63
50852;BME280;43953;45.508;-122.806;2023-05-10T01:19:55;100885.84;;;20.59;37.71
50852;BME280;43953;45.508;-122.806;2023-05-10T01:20:35;100885.28;;;20.57;37.59
50852;BME280;43953;45.508;-122.806;2023-05-10T01:22:14;100881.16;;;20.55;37.60
50852;BME280;43953;45.508;-122.806;2023-05-10T01:23:13;100886.09;;;20.53;37.89
50852;BME280;43953;45.508;-122.806;2023-05-10T01:26:39;100881.66;;;20.46;38.30
50852;BME280;43953;45.508;-122.806;2023-05-10T01:32:29;100874.56;;;20.35;38.02
50852;BME280;43953;45.508;-122.806;2023-05-10T01:33:15;100868.00;;;20.36;38.37
50852;BME280;43953;45.508;-122.806;2023-05-10T01:34:01;100866.06;;;20.37;38.50
50852;BME280;43953;45.508;-122.806;2023-05-10T01:37:09;100873.47;;;20.36;38.53
50852;BME280;43953;45.508;-122.806;2023-05-10T01:37:44;100868.81;;;20.37;38.35
50852;BME280;43953;45.508;-122.806;2023-05-10T01:39:15;100873.47;;;20.36;38.21
50852;BME280;43953;45.508;-122.806;2023-05-10T01:40:11;100869.34;;;20.34;38.21
50852;BME280;43953;45.508;-122.806;2023-05-10T01:42:08;100859.50;;;20.33;38.90
50852;BME280;43953;45.508;-122.806;2023-05-10T01:42:50;100865.78;;;20.33;38.52
50852;BME280;43953;45.508;-122.806;2023-05-10T01:43:39;100865.78;;;20.33;38.91
50852;BME280;43953;45.508;-122.806;2023-05-10T01:44:24;100865.78;;;20.33;38.66
50852;BME280;43953;45.508;-122.806;2023-05-10T01:46:07;100870.19;;;20.29;38.14
50852;BME280;43953;45.508;-122.806;2023-05-10T01:46:46;100868.50;;;20.28;38.47
50852;BME280;43953;45.508;-122.806;2023-05-10T01:47:45;100870.19;;;20.29;38.77
50852;BME280;43953;45.508;-122.806;2023-05-10T01:48:19;100860.88;;;20.30;38.86
50852;BME280;43953;45.508;-122.806;2023-05-10T01:48:55;100864.16;;;20.32;39.01
50852;BME280;43953;45.508;-122.806;2023-05-10T01:49:32;100862.50;;;20.31;38.60
50852;BME280;43953;45.508;-122.806;2023-05-10T01:50:27;100863.31;;;20.32;38.38
50852;BME280;43953;45.508;-122.806;2023-05-10T01:51:00;100863.59;;;20.30;38.24
50852;BME280;43953;45.508;-122.806;2023-05-10T01:52:10;100863.84;;;20.29;38.27
50852;BME280;43953;45.508;-122.806;2023-05-10T01:52:34;100865.25;;;20.26;38.17
50852;BME280;43953;45.508;-122.806;2023-05-10T01:53:10;100863.59;;;20.25;38.23
50852;BME280;43953;45.508;-122.806;2023-05-10T01:53:44;100862.78;;;20.25;38.70
50852;BME280;43953;45.508;-122.806;2023-05-10T01:54:19;100867.97;;;20.26;38.70
50852;BME280;43953;45.508;-122.806;2023-05-10T01:55:01;100867.13;;;20.26;38.66
50852;BME280;43953;45.508;-122.806;2023-05-10T01:55:38;100864.41;;;20.26;38.61
50852;BME280;43953;45.508;-122.806;2023-05-10T01:56:11;100865.25;;;20.26;38.52
50852;BME280;43953;45.508;-122.806;2023-05-10T01:56:45;100861.41;;;20.27;38.46
50852;BME280;43953;45.508;-122.806;2023-05-10T01:57:20;100862.22;;;20.28;38.43
50852;BME280;43953;45.508;-122.806;2023-05-10T01:58:01;100866.88;;;20.27;38.64
50852;BME280;43953;45.508;-122.806;2023-05-10T01:58:36;100868.50;;;20.28;38.30
50852;BME280;43953;45.508;-122.806;2023-05-10T01:59:17;100871.25;;;20.28;38.25
50852;BME280;43953;45.508;-122.806;2023-05-10T01:59:50;100867.44;;;20.29;38.31
50852;BME280;43953;45.508;-122.806;2023-05-10T02:00:23;100863.03;;;20.28;38.24
50852;BME280;43953;45.508;-122.806;2023-05-10T02:00:55;100870.19;;;20.29;38.45
50852;BME280;43953;45.508;-122.806;2023-05-10T02:01:30;100869.06;;;20.30;38.49
50852;BME280;43953;45.508;-122.806;2023-05-10T02:02:04;100865.25;;;20.31;38.85
50852;BME280;43953;45.508;-122.806;2023-05-10T02:02:39;100867.97;;;20.31;38.98
50852;BME280;43953;45.508;-122.806;2023-05-10T02:03:13;100866.06;;;20.32;38.66
50852;BME280;43953;45.508;-122.806;2023-05-10T02:03:47;100867.97;;;20.31;38.14
50852;BME280;43953;45.508;-122.806;2023-05-10T02:04:22;100869.06;;;20.30;38.06
50852;BME280;43953;45.508;-122.806;2023-05-10T02:04:55;100867.44;;;20.29;38.24
50852;BME280;43953;45.508;-122.806;2023-05-10T02:05:29;100872.91;;;20.29;38.06
50852;BME280;43953;45.508;-122.806;2023-05-10T02:06:03;100872.91;;;20.29;37.88
50852;BME280;43953;45.508;-122.806;2023-05-10T02:06:35;100874.78;;;20.29;38.29
50852;BME280;43953;45.508;-122.806;2023-05-10T02:07:08;100866.88;;;20.27;38.28
50852;BME280;43953;45.508;-122.806;2023-05-10T02:07:41;100871.25;;;20.28;38.26
50852;BME280;43953;45.508;-122.806;2023-05-10T02:08:14;100866.59;;;20.29;38.17
50852;BME280;43953;45.508;-122.806;2023-05-10T02:08:49;100869.31;;;20.29;37.99
50852;BME280;43953;45.508;-122.806;2023-05-10T02:09:22;100872.06;;;20.29;37.94
50852;BME280;43953;45.508;-122.806;2023-05-10T02:09:55;100872.06;;;20.29;37.91
50852;BME280;43953;45.508;-122.806;2023-05-10T02:10:28;100871.25;;;20.28;38.30
50852;BME280;43953;45.508;-122.806;2023-05-10T02:11:01;100865.78;;;20.28;38.32
50852;BME280;43953;45.508;-122.806;2023-05-10T02:11:33;100872.34;;;20.27;38.36
50852;BME280;43953;45.508;-122.806;2023-05-10T02:12:06;100865.78;;;20.28;38.40
50852;BME280;43953;45.508;-122.806;2023-05-10T02:12:42;100881.38;;;20.28;38.32
50852;BME280;43953;45.508;-122.806;2023-05-10T02:13:16;100866.59;;;20.29;38.30
50852;BME280;43953;45.508;-122.806;2023-05-10T02:13:49;100869.31;;;20.29;38.47
50852;BME280;43953;45.508;-122.806;2023-05-10T02:14:22;100875.66;;;20.29;38.37
50852;BME280;43953;45.508;-122.806;2023-05-10T02:14:56;100863.84;;;20.29;37.87
50852;BME280;43953;45.508;-122.806;2023-05-10T02:15:29;100870.19;;;20.29;37.91
50852;BME280;43953;45.508;-122.806;2023-05-10T02:16:01;100870.19;;;20.29;38.14
50852;BME280;43953;45.508;-122.806;2023-05-10T02:16:35;100872.91;;;20.29;38.37
50852;BME280;43953;45.508;-122.806;2023-05-10T02:17:09;100872.63;;;20.31;38.51
50852;BME280;43953;45.508;-122.806;2023-05-10T02:17:42;100867.97;;;20.31;38.30
50852;BME280;43953;45.508;-122.806;2023-05-10T02:18:15;100873.44;;;20.31;38.32
50852;BME280;43953;45.508;-122.806;2023-05-10T02:18:48;100874.00;;;20.33;38.42
50852;BME280;43953;45.508;-122.806;2023-05-10T02:19:22;100871.25;;;20.33;38.53
50852;BME280;43953;45.508;-122.806;2023-05-10T02:19:56;100879.19;;;20.35;38.61
50852;BME280;43953;45.508;-122.806;2023-05-10T02:20:30;100879.19;;;20.35;38.71
50852;BME280;43953;45.508;-122.806;2023-05-10T02:21:03;100878.13;;;20.36;38.88
50852;BME280;43953;45.508;-122.806;2023-05-10T02:21:37;100874.56;;;20.35;38.87
50852;BME280;43953;45.508;-122.806;2023-05-10T02:22:09;100875.09;;;20.37;38.81
50852;BME280;43953;45.508;-122.806;2023-05-10T02:22:42;100871.53;;;20.37;38.89
50852;BME280;43953;45.508;-122.806;2023-05-10T02:23:17;100876.19;;;20.36;38.92
50852;BME280;43953;45.508;-122.806;2023-05-10T02:23:50;100875.91;;;20.38;38.87
50852;BME280;43953;45.508;-122.806;2023-05-10T02:24:24;100874.84;;;20.39;39.16
50852;BME280;43953;45.508;-122.806;2023-05-10T02:24:58;100878.38;;;20.39;39.01
50852;BME280;43953;45.508;-122.806;2023-05-10T02:25:31;100881.94;;;20.40;39.06
50852;BME280;43953;45.508;-122.806;2023-05-10T02:26:05;100874.56;;;20.40;39.18
50852;BME280;43953;45.508;-122.806;2023-05-10T02:26:38;100871.81;;;20.40;39.13
50852;BME280;43953;45.508;-122.806;2023-05-10T02:27:10;100878.94;;;20.41;39.10
50852;BME280;43953;45.508;-122.806;2023-05-10T02:27:44;100871.00;;;20.40;39.12
50852;BME280;43953;45.508;-122.806;2023-05-10T02:28:17;100870.19;;;20.39;38.89
50852;BME280;43953;45.508;-122.806;2023-05-10T02:28:49;100874.84;;;20.39;38.95
50852;BME280;43953;45.508;-122.806;2023-05-10T02:29:23;100877.56;;;20.39;38.96
50852;BME280;43953;45.508;-122.806;2023-05-10T02:29:57;100875.91;;;20.38;38.95
50852;BME280;43953;45.508;-122.806;2023-05-10T02:30:31;100873.16;;;20.38;39.08
50852;BME280;43953;45.508;-122.806;2023-05-10T02:31:03;100880.31;;;20.39;39.05
50852;BME280;43953;45.508;-122.806;2023-05-10T02:31:36;100872.34;;;20.37;39.34
50852;BME280;43953;45.508;-122.806;2023-05-10T02:32:11;100872.34;;;20.37;39.27
50852;BME280;43953;45.508;-122.806;2023-05-10T02:32:44;100865.25;;;20.36;38.99
50852;BME280;43953;45.508;-122.806;2023-05-10T02:33:17;100872.34;;;20.37;39.36
50852;BME280;43953;45.508;-122.806;2023-05-10T02:33:49;100882.75;;;20.35;39.16
50852;BME280;43953;45.508;-122.806;2023-05-10T02:34:23;100874.56;;;20.35;39.19
50852;BME280;43953;45.508;-122.806;2023-05-10T02:34:57;100880.03;;;20.35;39.42
50852;BME280;43953;45.508;-122.806;2023-05-10T02:35:30;100882.75;;;20.35;39.39
50852;BME280;43953;45.508;-122.806;2023-05-10T02:36:05;100878.38;;;20.34;39.46
50852;BME280;43953;45.508;-122.806;2023-05-10T02:36:39;100877.56;;;20.34;39.47
50852;BME280;43953;45.508;-122.806;2023-05-10T02:37:15;100887.66;;;20.33;39.94
50852;BME280;43953;45.508;-122.806;2023-05-10T02:37:50;100875.34;;;20.31;40.06
50852;BME280;43953;45.508;-122.806;2023-05-10T02:38:22;100885.19;;;20.32;40.13
50852;BME280;43953;45.508;-122.806;2023-05-10T02:38:56;100880.00;;;20.30;40.61
50852;BME280;43953;45.508;-122.806;2023-05-10T02:39:29;100881.94;;;20.30;40.41
50852;BME280;43953;45.508;-122.806;2023-05-10T02:40:04;100884.91;;;20.28;40.43
50852;BME280;43953;45.508;-122.806;2023-05-10T02:40:36;100886.03;;;20.27;40.80
50852;BME280;43953;45.508;-122.806;2023-05-10T02:41:10;100884.38;;;20.26;40.86
50852;BME280;43953;45.508;-122.806;2023-05-10T02:41:43;100885.47;;;20.25;40.97
50852;BME280;43953;45.508;-122.806;2023-05-10T02:42:18;100889.28;;;20.24;41.05
50852;BME280;43953;45.508;-122.806;2023-05-10T02:42:52;100884.06;;;20.22;41.52
50852;BME280;43953;45.508;-122.806;2023-05-10T02:43:26;100886.00;;;20.22;41.57
50852;BME280;43953;45.508;-122.806;2023-05-10T02:44:01;100889.00;;;20.20;41.60
50852;BME280;43953;45.508;-122.806;2023-05-10T02:44:35;100893.09;;;20.18;41.63
50852;BME280;43953;45.508;-122.806;2023-05-10T02:45:12;100882.41;;;20.16;41.51
50852;BME280;43953;45.508;-122.806;2023-05-10T02:45:47;100890.91;;;20.15;41.32
50852;BME280;43953;45.508;-122.806;2023-05-10T02:46:19;100891.16;;;20.13;41.20
50852;BME280;43953;45.508;-122.806;2023-05-10T02:46:50;100886.22;;;20.10;41.38
50852;BME280;43953;45.508;-122.806;2023-05-10T02:47:22;100890.06;;;20.09;41.23
50852;BME280;43953;45.508;-122.806;2023-05-10T02:47:55;100887.34;;;20.09;41.14
50852;BME280;43953;45.508;-122.806;2023-05-10T02:48:27;100888.41;;;20.08;41.34
50852;BME280;43953;45.508;-122.806;2023-05-10T02:48:59;100887.34;;;20.09;41.47
50852;BME280;43953;45.508;-122.806;2023-05-10T02:49:32;100884.84;;;20.08;41.56
50852;BME280;43953;45.508;-122.806;2023-05-10T02:50:04;100885.94;;;20.07;42.03
50852;BME280;43953;45.508;-122.806;2023-05-10T02:50:37;100889.78;;;20.06;41.83
50852;BME280;43953;45.508;-122.806;2023-05-10T02:51:12;100894.69;;;20.04;42.33
50852;BME280;43953;45.508;-122.806;2023-05-10T02:51:51;100888.41;;;20.03;42.44
50852;BME280;43953;45.508;-122.806;2023-05-10T02:52:30;100893.31;;;20.01;42.47
50852;BME280;43953;45.508;-122.806;2023-05-10T02:53:11;100893.59;;;19.99;42.42
50852;BME280;43953;45.508;-122.806;2023-05-10T02:53:47;100888.38;;;19.98;42.53
50852;BME280;43953;45.508;-122.806;2023-05-10T02:54:24;100891.38;;;19.96;43.01
50852;BME280;43953;45.508;-122.806;2023-05-10T02:55:01;100885.38;;;19.94;42.82
50852;BME280;43953;45.508;-122.806;2023-05-10T02:55:40;100891.91;;;19.93;43.26
50852;BME280;43953;45.508;-122.806;2023-05-10T02:56:23;100888.34;;;19.93;43.01
50852;BME280;43953;45.508;-122.806;2023-05-10T02:56:58;100898.47;;;19.92;42.78
50852;BME280;43953;45.508;-122.806;2023-05-10T02:57:34;100887.25;;;19.89;42.95
50852;BME280;43953;45.508;-122.806;2023-05-10T02:58:08;100892.97;;;19.87;43.03
50852;BME280;43953;45.508;-122.806;2023-05-10T02:58:40;100883.13;;;19.86;43.49
50852;BME280;43953;45.508;-122.806;2023-05-10T02:59:12;100892.44;;;19.85;43.72
50852;BME280;43953;45.508;-122.806;2023-05-10T02:59:43;100890.78;;;19.84;43.76
50852;BME280;43953;45.508;-122.806;2023-05-10T03:00:16;100891.06;;;19.83;43.58
50852;BME280;43953;45.508;-122.806;2023-05-10T03:00:48;100886.66;;;19.82;43.66
50852;BME280;43953;45.508;-122.806;2023-05-10T03:01:19;100892.41;;;19.80;43.82
50852;BME280;43953;45.508;-122.806;2023-05-10T03:01:51;100889.38;;;19.76;43.81
50852;BME280;43953;45.508;-122.806;2023-05-10T03:02:23;100887.47;;;19.77;43.90
50852;BME280;43953;45.508;-122.806;2023-05-10T03:02:55;100888.56;;;19.76;43.95
50852;BME280;43953;45.508;-122.806;2023-05-10T03:03:27;100895.09;;;19.75;44.04
50852;BME280;43953;45.508;-122.806;2023-05-10T03:03:58;100889.09;;;19.73;43.97
50852;BME280;43953;45.508;-122.806;2023-05-10T03:04:30;100885.81;;;19.71;44.26
50852;BME280;43953;45.508;-122.806;2023-05-10T03:05:02;100884.41;;;19.68;44.17